createdAt,value
2018-11-14T00:00:00.055Z,6.67
2018-11-14T00:02:28.256Z,6.95
2018-11-14T00:04:56.467Z,7.25
2018-11-14T00:07:24.700Z,6.33
2018-11-14T00:09:53.031Z,6.00
2018-11-14T00:12:21.270Z,6.10
2018-11-14T00:14:49.478Z,7.03
2018-11-14T00:17:17.741Z,6.45
2018-11-14T00:19:45.998Z,6.55
2018-11-14T00:22:14.215Z,5.80
2018-11-14T00:24:42.493Z,6.83
2018-11-14T00:27:10.651Z,6.72
2018-11-14T00:29:38.840Z,6.70
2018-11-14T00:32:07.112Z,6.80
2018-11-14T00:34:35.411Z,7.50
2018-11-14T00:37:03.566Z,6.87
2018-11-14T00:39:31.762Z,6.92
2018-11-14T00:42:00.008Z,7.20
2018-11-14T00:44:28.191Z,5.62
2018-11-14T00:46:56.422Z,6.65
2018-11-14T00:49:24.610Z,7.28
2018-11-14T00:51:52.819Z,7.37
2018-11-14T00:54:21.033Z,7.83
2018-11-14T00:56:49.286Z,6.67
2018-11-14T00:59:18.321Z,7.20
2018-11-14T01:01:46.600Z,7.12
2018-11-14T01:04:14.747Z,7.95
2018-11-14T01:06:43.038Z,6.87
2018-11-14T01:09:12.806Z,5.78
2018-11-14T01:11:41.027Z,6.87
2018-11-14T01:14:10.066Z,7.28
2018-11-14T01:16:38.299Z,7.17
2018-11-14T01:19:07.371Z,7.55
2018-11-14T01:21:35.673Z,7.75
2018-11-14T01:24:03.938Z,8.25
2018-11-14T01:26:32.140Z,6.15
2018-11-14T01:29:00.682Z,7.33
2018-11-14T01:31:28.891Z,7.28
2018-11-14T01:33:57.176Z,5.87
2018-11-14T01:36:25.318Z,7.22
2018-11-14T01:38:53.530Z,8.08
2018-11-14T01:41:21.866Z,7.80
2018-11-14T01:43:50.119Z,8.10
2018-11-14T01:46:18.330Z,7.12
2018-11-14T01:48:46.639Z,7.45
2018-11-14T01:51:14.859Z,8.40
2018-11-14T01:53:43.099Z,8.38
2018-11-14T01:56:11.314Z,7.92
2018-11-14T01:58:39.538Z,8.00
2018-11-14T02:01:07.791Z,8.20
2018-11-14T02:03:36.010Z,7.72
2018-11-14T02:06:04.224Z,7.85
2018-11-14T02:08:32.419Z,7.85
2018-11-14T02:11:00.614Z,7.97
2018-11-14T02:13:28.812Z,7.45
2018-11-14T02:15:57.024Z,6.92
2018-11-14T02:18:25.227Z,6.20
2018-11-14T02:20:53.430Z,7.73
2018-11-14T02:23:21.647Z,7.00
2018-11-14T02:25:49.851Z,6.80
2018-11-14T02:28:18.054Z,7.65
2018-11-14T02:30:46.251Z,8.10
2018-11-14T02:33:14.458Z,7.12
2018-11-14T02:35:42.638Z,7.53
2018-11-14T02:38:10.826Z,8.45
2018-11-14T02:40:39.014Z,8.47
2018-11-14T02:43:07.224Z,8.20
2018-11-14T02:45:35.435Z,7.72
2018-11-14T02:48:03.638Z,7.25
2018-11-14T02:50:31.824Z,7.55
2018-11-14T02:53:00.023Z,7.45
2018-11-14T02:55:28.214Z,7.90
2018-11-14T02:57:56.415Z,7.80
2018-11-14T03:00:24.606Z,7.23
2018-11-14T03:02:52.812Z,8.35
2018-11-14T03:05:20.994Z,5.75
2018-11-14T03:07:49.193Z,6.90
2018-11-14T03:10:19.252Z,8.25
2018-11-14T03:12:47.518Z,7.00
2018-11-14T03:15:18.086Z,7.70
2018-11-14T03:17:46.275Z,6.63
2018-11-14T03:20:15.826Z,8.00
2018-11-14T03:22:43.986Z,6.87
2018-11-14T03:25:13.101Z,7.37
2018-11-14T03:27:41.282Z,7.63
2018-11-14T03:30:11.891Z,8.00
2018-11-14T03:32:40.588Z,8.60
2018-11-14T03:35:09.419Z,7.47
2018-11-14T03:37:37.849Z,7.40
2018-11-14T03:40:07.266Z,5.67
2018-11-14T03:42:35.501Z,7.53
2018-11-14T03:45:03.694Z,6.87
2018-11-14T03:47:31.869Z,7.05
2018-11-14T03:50:00.056Z,6.53
2018-11-14T03:52:28.249Z,7.73
2018-11-14T03:54:56.414Z,7.33
2018-11-14T03:57:24.593Z,6.53
2018-11-14T03:59:52.777Z,6.07
2018-11-14T04:02:20.949Z,6.47
2018-11-14T04:04:49.146Z,6.47
2018-11-14T04:07:17.327Z,6.67
2018-11-14T04:09:45.509Z,6.30
2018-11-14T04:12:13.671Z,6.60
2018-11-14T04:14:41.859Z,5.43
2018-11-14T04:17:10.033Z,5.87
2018-11-14T04:19:38.205Z,5.55
2018-11-14T04:22:06.393Z,5.07
2018-11-14T04:24:34.651Z,6.30
2018-11-14T04:27:02.842Z,6.25
2018-11-14T04:29:31.054Z,8.70
2018-11-14T04:31:59.259Z,11.22
2018-11-14T04:34:27.463Z,9.10
2018-11-14T04:36:55.649Z,6.63
2018-11-14T04:39:23.890Z,6.63
2018-11-14T04:41:52.086Z,6.57
2018-11-14T04:44:20.319Z,5.67
2018-11-14T04:46:48.513Z,6.03
2018-11-14T04:49:16.693Z,6.30
2018-11-14T04:51:44.882Z,4.93
2018-11-14T04:54:13.075Z,5.62
2018-11-14T04:56:41.272Z,4.72
2018-11-14T04:59:09.516Z,6.12
2018-11-14T05:01:37.727Z,6.08
2018-11-14T05:04:05.974Z,6.03
2018-11-14T05:06:34.249Z,4.90
2018-11-14T05:09:02.564Z,7.17
2018-11-14T05:11:30.870Z,5.58
2018-11-14T05:13:59.055Z,6.22
2018-11-14T05:16:27.250Z,6.43
2018-11-14T05:18:55.442Z,5.33
2018-11-14T05:21:23.626Z,6.30
2018-11-14T05:23:51.826Z,6.63
2018-11-14T05:26:20.032Z,7.07
2018-11-14T05:28:48.237Z,5.83
2018-11-14T05:31:16.474Z,6.43
2018-11-14T05:33:44.663Z,7.17
2018-11-14T05:36:12.949Z,7.53
2018-11-14T05:38:41.147Z,6.00
2018-11-14T05:41:09.400Z,6.75
2018-11-14T05:43:37.586Z,5.97
2018-11-14T05:46:05.914Z,6.30
2018-11-14T05:48:34.149Z,5.80
2018-11-14T05:51:02.403Z,5.93
2018-11-14T05:53:30.637Z,6.20
2018-11-14T05:55:58.963Z,5.47
2018-11-14T05:58:27.209Z,5.78
2018-11-14T06:00:55.438Z,6.58
2018-11-14T06:03:23.667Z,6.28
2018-11-14T06:05:51.878Z,5.42
2018-11-14T06:08:20.087Z,6.53
2018-11-14T06:10:48.275Z,6.70
2018-11-14T06:13:16.494Z,6.08
2018-11-14T06:15:44.720Z,6.50
2018-11-14T06:18:12.917Z,5.83
2018-11-14T06:20:41.118Z,6.80
2018-11-14T06:23:09.358Z,6.50
2018-11-14T06:25:38.490Z,7.20
2018-11-14T06:28:07.877Z,6.33
2018-11-14T06:30:43.411Z,7.07
2018-11-14T06:33:12.404Z,6.00
2018-11-14T06:35:40.595Z,5.77
2018-11-14T06:38:08.785Z,6.05
2018-11-14T06:40:37.006Z,5.87
2018-11-14T06:43:05.231Z,4.87
2018-11-14T06:45:34.106Z,5.35
2018-11-14T06:48:02.927Z,6.92
2018-11-14T06:50:31.111Z,5.70
2018-11-14T06:53:00.789Z,6.30
2018-11-14T06:55:28.984Z,4.73
2018-11-14T06:57:57.182Z,5.53
2018-11-14T07:00:26.423Z,5.10
2018-11-14T07:02:55.027Z,4.93
2018-11-14T07:05:23.300Z,5.13
2018-11-14T07:07:51.501Z,5.53
2018-11-14T07:10:21.007Z,5.57
2018-11-14T07:12:49.262Z,6.07
2018-11-14T07:15:18.747Z,5.67
2018-11-14T07:17:47.589Z,5.33
2018-11-14T07:20:19.403Z,17.83
2018-11-14T07:22:47.597Z,10.17
2018-11-14T07:25:16.154Z,6.90
2018-11-14T07:27:44.555Z,6.07
2018-11-14T07:30:14.855Z,5.10
2018-11-14T07:32:44.376Z,6.75
2018-11-14T07:35:13.762Z,6.60
2018-11-14T07:37:42.870Z,5.83
2018-11-14T07:40:12.992Z,6.33
2018-11-14T07:42:41.975Z,7.13
2018-11-14T07:45:12.454Z,6.33
2018-11-14T07:47:40.682Z,6.13
2018-11-14T07:50:12.086Z,6.63
2018-11-14T07:52:40.307Z,7.33
2018-11-14T07:55:09.705Z,6.17
2018-11-14T07:57:38.208Z,6.92
2018-11-14T08:00:09.934Z,7.08
2018-11-14T08:02:38.201Z,5.70
2018-11-14T08:05:06.530Z,6.50
2018-11-14T08:07:35.760Z,6.33
2018-11-14T08:10:04.711Z,7.70
2018-11-14T08:12:33.173Z,7.03
2018-11-14T08:15:01.507Z,7.00
2018-11-14T08:17:29.790Z,6.45
2018-11-14T08:19:58.012Z,7.15
2018-11-14T08:22:26.577Z,6.65
2018-11-14T08:24:54.817Z,6.90
2018-11-14T08:27:23.044Z,6.17
2018-11-14T08:29:51.317Z,6.62
2018-11-14T08:32:19.519Z,6.87
2018-11-14T08:34:47.810Z,5.80
2018-11-14T08:37:16.039Z,6.67
2018-11-14T08:39:44.243Z,5.47
2018-11-14T08:42:12.426Z,5.47
2018-11-14T08:44:40.611Z,6.25
2018-11-14T08:47:08.931Z,6.30
2018-11-14T08:49:37.161Z,6.40
2018-11-14T08:52:05.831Z,5.05
2018-11-14T08:54:34.073Z,5.60
2018-11-14T08:57:02.295Z,6.65
2018-11-14T08:59:30.513Z,5.72
2018-11-14T09:01:58.697Z,6.53
2018-11-14T09:04:26.921Z,6.12
2018-11-14T09:06:55.117Z,5.80
2018-11-14T09:09:23.449Z,6.53
2018-11-14T09:11:51.626Z,4.78
2018-11-14T09:14:19.832Z,5.97
2018-11-14T09:16:48.115Z,5.33
2018-11-14T09:19:16.306Z,5.83
2018-11-14T09:21:44.487Z,5.37
2018-11-14T09:24:13.517Z,5.20
2018-11-14T09:26:41.714Z,5.20
2018-11-14T09:29:09.926Z,5.50
2018-11-14T09:31:38.116Z,4.70
2018-11-14T09:34:06.524Z,4.50
2018-11-14T09:36:34.714Z,4.65
2018-11-14T09:39:02.917Z,5.12
2018-11-14T09:41:31.155Z,4.80
2018-11-14T09:43:59.303Z,4.92
2018-11-14T09:46:27.550Z,4.90
2018-11-14T09:48:56.182Z,5.10
2018-11-14T09:51:24.372Z,4.33
2018-11-14T09:53:52.570Z,3.75
2018-11-14T09:56:20.778Z,3.92
2018-11-14T09:58:49.063Z,5.30
2018-11-14T10:01:17.270Z,3.65
2018-11-14T10:03:45.455Z,4.55
2018-11-14T10:06:13.669Z,3.70
2018-11-14T10:08:41.869Z,4.40
2018-11-14T10:11:10.057Z,3.30
2018-11-14T10:13:38.259Z,3.65
2018-11-14T10:16:06.472Z,2.92
2018-11-14T10:18:34.723Z,4.62
2018-11-14T10:21:02.899Z,4.42
2018-11-14T10:23:31.038Z,4.30
2018-11-14T10:25:59.570Z,4.67
2018-11-14T10:28:27.763Z,3.90
2018-11-14T10:30:55.994Z,4.00
2018-11-14T10:33:24.152Z,3.70
2018-11-14T10:35:52.366Z,3.65
2018-11-14T10:38:20.545Z,3.05
2018-11-14T10:40:48.734Z,3.30
2018-11-14T10:43:17.079Z,3.98
2018-11-14T10:45:45.354Z,3.83
2018-11-14T10:48:13.601Z,4.47
2018-11-14T10:50:41.819Z,4.00
2018-11-14T10:53:10.055Z,4.35
2018-11-14T10:55:38.271Z,3.75
2018-11-14T10:58:06.730Z,3.98
2018-11-14T11:01:40.707Z,3.77
2018-11-14T11:04:15.043Z,4.22
2018-11-14T11:07:47.378Z,3.60
2018-11-14T11:10:21.079Z,3.87
2018-11-14T11:12:54.638Z,4.35
2018-11-14T11:15:34.136Z,4.45
2018-11-14T11:18:04.735Z,4.75
2018-11-14T11:20:33.030Z,4.17
2018-11-14T11:23:01.267Z,3.55
2018-11-14T11:25:29.466Z,3.77
2018-11-14T11:27:57.660Z,4.65
2018-11-14T11:30:25.839Z,3.72
2018-11-14T11:32:54.067Z,4.15
2018-11-14T11:35:22.326Z,4.45
2018-11-14T11:37:50.504Z,4.15
2018-11-14T11:40:18.697Z,4.72
2018-11-14T11:42:46.941Z,3.77
2018-11-14T11:45:15.151Z,4.92
2018-11-14T11:47:43.368Z,3.02
2018-11-14T11:50:11.637Z,3.77
2018-11-14T11:52:39.918Z,4.12
2018-11-14T11:55:08.142Z,4.47
2018-11-14T11:57:36.428Z,3.92
2018-11-14T12:00:06.480Z,2.80
2018-11-14T12:02:34.625Z,3.95
2018-11-14T12:05:02.831Z,3.17
2018-11-14T12:07:31.159Z,2.65
2018-11-14T12:09:59.597Z,3.90
2018-11-14T12:12:27.791Z,3.30
2018-11-14T12:14:55.978Z,3.27
2018-11-14T12:17:24.172Z,2.75
2018-11-14T12:19:52.382Z,2.50
2018-11-14T12:22:20.590Z,3.40
2018-11-14T12:24:48.778Z,2.35
2018-11-14T12:27:17.091Z,2.65
2018-11-14T12:29:45.296Z,3.42
2018-11-14T12:32:13.635Z,3.33
2018-11-14T12:34:41.914Z,2.52
2018-11-14T12:37:10.103Z,3.12
2018-11-14T12:39:38.298Z,3.30
2018-11-14T12:42:06.535Z,2.90
2018-11-14T12:44:34.722Z,2.62
2018-11-14T12:47:02.928Z,2.47
2018-11-14T12:49:31.150Z,2.87
2018-11-14T12:51:59.334Z,3.42
2018-11-14T12:54:27.510Z,3.10
2018-11-14T12:56:55.686Z,2.02
2018-11-14T12:59:23.934Z,3.12
2018-11-14T13:01:52.062Z,3.02
2018-11-14T13:04:20.255Z,3.60
2018-11-14T13:06:48.507Z,3.22
2018-11-14T13:09:16.708Z,2.92
2018-11-14T13:11:44.973Z,2.85
2018-11-14T13:14:13.138Z,2.72
2018-11-14T13:16:41.354Z,3.00
2018-11-14T13:19:09.536Z,3.92
2018-11-14T13:21:37.728Z,3.17
2018-11-14T13:24:05.931Z,2.85
2018-11-14T13:26:34.133Z,3.22
2018-11-14T13:29:02.528Z,2.85
2018-11-14T13:31:30.627Z,1.77
2018-11-14T13:33:58.866Z,2.25
2018-11-14T13:36:27.062Z,1.80
2018-11-14T13:38:55.274Z,1.50
2018-11-14T13:41:23.463Z,1.40
2018-11-14T13:43:51.649Z,1.70
2018-11-14T13:46:19.846Z,1.47
2018-11-14T13:48:48.196Z,1.90
2018-11-14T13:51:16.778Z,1.90
2018-11-14T13:53:44.731Z,1.95
2018-11-14T13:56:12.952Z,1.40
2018-11-14T13:58:41.134Z,2.37
2018-11-14T14:01:09.480Z,2.00
2018-11-14T14:03:37.667Z,2.12
2018-11-14T14:06:05.869Z,2.40
2018-11-14T14:08:34.077Z,2.50
2018-11-14T14:11:02.260Z,1.80
2018-11-14T14:13:30.510Z,1.47
2018-11-14T14:15:58.702Z,1.50
2018-11-14T14:18:27.518Z,1.65
2018-11-14T14:20:55.824Z,1.98
2018-11-14T14:23:24.042Z,2.27
2018-11-14T14:25:52.230Z,2.35
2018-11-14T14:28:20.474Z,1.90
2018-11-14T14:30:48.696Z,1.50
2018-11-14T14:33:16.840Z,1.52
2018-11-14T14:35:45.133Z,1.87
2018-11-14T14:38:13.461Z,2.15
2018-11-14T14:40:41.710Z,1.98
2018-11-14T14:43:09.999Z,1.72
2018-11-14T14:45:38.166Z,2.40
2018-11-14T14:48:06.374Z,1.92
2018-11-14T14:50:34.565Z,1.42
2018-11-14T14:53:02.815Z,2.05
2018-11-14T14:55:31.003Z,1.70
2018-11-14T14:57:59.232Z,2.08
2018-11-14T15:00:28.253Z,2.98
2018-11-14T15:02:56.546Z,1.92
2018-11-14T15:05:24.765Z,1.98
2018-11-14T15:07:52.943Z,2.30
2018-11-14T15:10:22.267Z,1.57
2018-11-14T15:12:50.450Z,2.00
2018-11-14T15:15:19.142Z,2.20
2018-11-14T15:17:47.327Z,2.08
2018-11-14T15:20:17.722Z,2.20
2018-11-14T15:22:45.977Z,2.10
2018-11-14T15:25:15.351Z,2.45
2018-11-14T15:27:43.999Z,2.15
2018-11-14T15:30:16.081Z,2.30
2018-11-14T15:32:44.538Z,1.87
2018-11-14T15:35:13.227Z,2.08
2018-11-14T15:37:41.659Z,1.82
2018-11-14T15:40:11.950Z,2.25
2018-11-14T15:42:40.136Z,2.20
2018-11-14T15:45:10.608Z,2.52
2018-11-14T15:47:38.816Z,2.22
2018-11-14T15:50:09.777Z,2.95
2018-11-14T15:52:37.974Z,2.80
2018-11-14T15:55:07.794Z,2.98
2018-11-14T15:57:36.558Z,2.25
2018-11-14T16:00:06.587Z,3.30
2018-11-14T16:02:34.966Z,2.90
2018-11-14T16:05:03.471Z,3.22
2018-11-14T16:07:31.679Z,2.83
2018-11-14T16:09:59.906Z,3.72
2018-11-14T16:12:29.291Z,3.17
2018-11-14T16:14:57.433Z,3.60
2018-11-14T16:17:25.669Z,2.92
2018-11-14T16:19:53.896Z,2.83
2018-11-14T16:22:22.123Z,3.22
2018-11-14T16:24:50.405Z,2.77
2018-11-14T16:27:18.535Z,3.10
2018-11-14T16:29:46.998Z,3.08
2018-11-14T16:32:15.395Z,3.15
2018-11-14T16:34:43.678Z,3.00
2018-11-14T16:37:11.950Z,3.90
2018-11-14T16:39:40.224Z,3.58
2018-11-14T16:42:08.405Z,3.33
2018-11-14T16:44:36.633Z,2.92
2018-11-14T16:47:04.862Z,3.17
2018-11-14T16:49:33.119Z,3.40
2018-11-14T16:52:01.313Z,3.62
2018-11-14T16:54:29.594Z,3.67
2018-11-14T16:56:57.794Z,3.50
2018-11-14T16:59:26.019Z,3.27
2018-11-14T17:01:54.214Z,3.85
2018-11-14T17:04:22.437Z,3.30
2018-11-14T17:06:50.748Z,3.67
2018-11-14T17:09:19.012Z,4.03
2018-11-14T17:11:47.912Z,3.25
2018-11-14T17:14:16.152Z,3.35
2018-11-14T17:16:44.363Z,3.70
2018-11-14T17:19:12.597Z,3.90
2018-11-14T17:21:40.774Z,5.30
2018-11-14T17:24:09.067Z,4.55
2018-11-14T17:26:37.758Z,4.33
2018-11-14T17:29:06.151Z,4.97
2018-11-14T17:31:34.351Z,4.08
2018-11-14T17:34:02.590Z,4.35
2018-11-14T17:36:31.516Z,5.08
2018-11-14T17:38:59.746Z,5.55
2018-11-14T17:41:28.011Z,5.60
2018-11-14T17:43:56.218Z,5.42
2018-11-14T17:46:24.412Z,4.40
2018-11-14T17:48:52.611Z,5.05
2018-11-14T17:51:20.830Z,5.05
2018-11-14T17:53:49.085Z,4.30
2018-11-14T17:56:17.408Z,4.83
2018-11-14T17:58:45.614Z,5.65
2018-11-14T18:01:13.979Z,5.67
2018-11-14T18:03:42.022Z,6.35
2018-11-14T18:06:10.246Z,5.42
2018-11-14T18:08:38.470Z,5.75
2018-11-14T18:11:06.664Z,6.17
2018-11-14T18:13:34.893Z,6.58
2018-11-14T18:16:03.114Z,6.30
2018-11-14T18:18:31.306Z,5.20
2018-11-14T18:20:59.518Z,5.80
2018-11-14T18:23:27.739Z,5.70
2018-11-14T18:25:56.165Z,6.12
2018-11-14T18:28:24.334Z,4.50
2018-11-14T18:30:52.741Z,5.92
2018-11-14T18:33:20.887Z,5.47
2018-11-14T18:35:49.116Z,5.60
2018-11-14T18:38:17.325Z,5.78
2018-11-14T18:40:45.595Z,5.97
2018-11-14T18:43:13.795Z,7.62
2018-11-14T18:45:42.043Z,7.80
2018-11-14T18:48:10.168Z,6.03
2018-11-14T18:50:38.364Z,6.33
2018-11-14T18:53:06.639Z,7.03
2018-11-14T18:55:35.379Z,7.80
2018-11-14T18:58:04.281Z,7.95
2018-11-14T19:00:33.368Z,7.40
2018-11-14T19:03:01.565Z,7.30
2018-11-14T19:05:29.807Z,6.47
2018-11-14T19:07:58.024Z,7.85
2018-11-14T19:10:27.845Z,6.55
2018-11-14T19:12:56.107Z,5.92
2018-11-14T19:15:25.674Z,6.08
2018-11-14T19:17:54.037Z,4.70
2018-11-14T19:20:26.425Z,6.53
2018-11-14T19:22:55.252Z,6.00
2018-11-14T19:25:24.778Z,5.78
2018-11-14T19:27:52.964Z,5.83
2018-11-14T19:30:24.481Z,6.85
2018-11-14T19:32:53.478Z,7.22
2018-11-14T19:35:21.811Z,6.95
2018-11-14T19:37:51.048Z,6.37
2018-11-14T19:40:29.877Z,4.58
2018-11-14T19:42:59.338Z,6.85
2018-11-14T19:45:29.002Z,6.15
2018-11-14T19:47:57.272Z,5.17
2018-11-14T19:50:25.880Z,6.47
2018-11-14T19:52:54.290Z,4.35
2018-11-14T19:55:23.611Z,4.60
2018-11-14T19:57:53.113Z,4.95
2018-11-14T20:00:26.630Z,5.65
2018-11-14T20:02:54.824Z,6.10
2018-11-14T20:05:23.326Z,5.40
2018-11-14T20:07:51.551Z,4.85
2018-11-14T20:10:20.982Z,5.65
2018-11-14T20:12:49.719Z,5.80
2018-11-14T20:15:26.969Z,4.70
2018-11-14T20:17:55.279Z,4.42
2018-11-14T20:20:24.921Z,4.42
2018-11-14T20:22:53.101Z,5.55
2018-11-14T20:25:21.306Z,5.57
2018-11-14T20:27:49.655Z,5.72
2018-11-14T20:30:23.242Z,4.20
2018-11-14T20:32:52.009Z,5.40
2018-11-14T20:35:21.131Z,5.25
2018-11-14T20:37:49.374Z,6.13
2018-11-14T20:40:18.778Z,5.57
2018-11-14T20:42:47.590Z,5.23
2018-11-14T20:45:18.581Z,4.33
2018-11-14T20:47:46.845Z,5.60
2018-11-14T20:50:16.805Z,4.70
2018-11-14T20:52:45.915Z,5.20
2018-11-14T20:55:14.225Z,5.03
2018-11-14T20:57:42.967Z,6.35
2018-11-14T21:00:16.863Z,5.00
2018-11-14T21:02:45.065Z,4.13
2018-11-14T21:05:13.286Z,4.95
2018-11-14T21:07:42.531Z,6.80
2018-11-14T21:10:14.884Z,4.30
2018-11-14T21:12:43.261Z,5.63
2018-11-14T21:15:14.482Z,5.33
2018-11-14T21:17:42.942Z,5.57
2018-11-14T21:20:11.404Z,3.90
2018-11-14T21:22:40.886Z,5.90
2018-11-14T21:25:10.567Z,5.73
2018-11-14T21:27:39.161Z,4.63
2018-11-14T21:30:09.385Z,5.97
2018-11-14T21:32:38.095Z,7.80
2018-11-14T21:35:09.086Z,8.57
2018-11-14T21:37:37.338Z,7.43
2018-11-14T21:40:07.277Z,6.60
2018-11-14T21:42:35.567Z,5.33
2018-11-14T21:45:03.832Z,5.30
2018-11-14T21:47:37.403Z,4.67
2018-11-14T21:50:10.843Z,5.37
2018-11-14T21:52:39.207Z,5.37
2018-11-14T21:55:08.366Z,5.47
2018-11-14T21:57:36.866Z,6.33
2018-11-14T22:00:14.621Z,5.80
2018-11-14T22:02:45.047Z,5.00
2018-11-14T22:05:13.511Z,4.97
2018-11-14T22:07:41.726Z,5.70
2018-11-14T22:10:12.633Z,5.03
2018-11-14T22:12:41.419Z,5.80
2018-11-14T22:15:10.206Z,4.83
2018-11-14T22:17:41.568Z,5.20
2018-11-14T22:20:11.837Z,5.67
2018-11-14T22:22:40.775Z,4.17
2018-11-14T22:25:09.751Z,5.20
2018-11-14T22:27:37.991Z,5.53
2018-11-14T22:30:10.286Z,5.40
2018-11-14T22:32:38.492Z,4.77
2018-11-14T22:35:08.525Z,6.10
2018-11-14T22:37:37.671Z,4.60
2018-11-14T22:40:07.679Z,4.63
2018-11-14T22:42:36.762Z,5.40
2018-11-14T22:45:05.171Z,5.17
2018-11-14T22:47:33.441Z,4.93
2018-11-14T22:50:01.635Z,5.03
2018-11-14T22:52:29.901Z,4.37
2018-11-14T22:54:58.251Z,5.57
2018-11-14T22:57:26.585Z,4.87
2018-11-14T22:59:54.758Z,5.80
2018-11-14T23:02:23.063Z,4.40
2018-11-14T23:04:51.302Z,4.93
2018-11-14T23:07:19.542Z,4.80
2018-11-14T23:09:47.805Z,5.67
2018-11-14T23:12:15.967Z,5.63
2018-11-14T23:14:44.154Z,6.03
2018-11-14T23:17:12.459Z,5.13
2018-11-14T23:19:40.653Z,6.57
2018-11-14T23:22:08.862Z,6.57
2018-11-14T23:24:37.062Z,6.87
2018-11-14T23:27:05.854Z,6.03
2018-11-14T23:29:34.406Z,6.13
2018-11-14T23:32:02.595Z,6.37
2018-11-14T23:34:31.061Z,4.97
2018-11-14T23:36:59.238Z,5.07
2018-11-14T23:39:27.505Z,6.60
2018-11-14T23:41:55.697Z,5.53
2018-11-14T23:44:23.881Z,4.97
2018-11-14T23:46:52.062Z,5.53
2018-11-14T23:49:20.322Z,6.10
2018-11-14T23:51:49.589Z,5.07
2018-11-14T23:54:17.784Z,6.77
2018-11-14T23:56:45.968Z,6.83
2018-11-14T23:59:14.166Z,7.90
